Time;durP1;ratioP1;P1;durP2;ratioP2;P2;SDS_P1;SDS_P2;PMS_P1;PMS_P2;Temp;Humidity;BMP_temperature;BMP_pressure;BME280_temperature;BME280_humidity;BME280_pressure;Samples;Min_cycle;Max_cycle;Signal;HPM_P1;HPM_P2
2023/08/09 00:00:45;;;;;;;6.70;1.20;;;;;;;18.08;83.48;99167.36;79429;1296;3011623;-67
2023/08/09 00:03:13;;;;;;;3.60;1.30;;;;;;;17.68;84.57;99168.27;78216;1296;3026465;-68
2023/08/09 00:05:40;;;;;;;1.80;0.80;;;;;;;17.28;85.31;99153.25;79467;1301;3013818;-69
2023/08/09 00:08:06;;;;;;;3.50;0.80;;;;;;;17.31;85.51;99144.17;79379;1296;3013056;-69
2023/08/09 00:10:34;;;;;;;2.70;1.00;;;;;;;17.52;83.22;99155.02;78223;1300;3026516;-66
2023/08/09 00:13:00;;;;;;;3.10;1.50;;;;;;;17.36;83.30;99154.83;79403;1300;3013345;-67
2023/08/09 00:15:27;;;;;;;10.10;3.40;;;;;;;17.01;84.18;99155.21;79313;1296;3012994;-64
2023/08/09 00:17:55;;;;;;;9.50;3.60;;;;;;;16.69;86.28;99133.34;78092;1302;3028760;-67
2023/08/09 00:20:22;;;;;;;11.70;6.00;;;;;;;16.87;85.96;99131.70;79437;1301;3013157;-65
2023/08/09 00:22:49;;;;;;;14.90;7.20;;;;;;;17.02;85.05;99125.19;79306;1301;3013826;-69
2023/08/09 00:25:18;;;;;;;17.80;9.10;;;;;;;16.76;87.40;99119.63;78184;1296;3026336;-67
2023/08/09 00:27:44;;;;;;;20.70;8.90;;;;;;;16.48;90.22;99128.88;79451;1296;3013458;-68
2023/08/09 00:30:11;;;;;;;15.10;6.30;;;;;;;16.36;90.59;99138.45;79516;1299;3011708;-67
2023/08/09 00:32:39;;;;;;;17.30;6.70;;;;;;;16.68;89.40;99156.38;78357;1298;3052319;-68
2023/08/09 00:35:06;;;;;;;13.80;6.30;;;;;;;16.68;89.37;99162.47;79588;1296;3012639;-72
2023/08/09 00:37:32;;;;;;;16.20;5.80;;;;;;;16.43;90.15;99175.65;79496;1296;3011974;-72
2023/08/09 00:40:01;;;;;;;8.90;3.20;;;;;;;16.13;91.95;99188.17;78299;1301;3026020;-73
2023/08/09 00:42:27;;;;;;;6.20;2.70;;;;;;;16.14;94.25;99193.41;79403;1301;3013340;-66
2023/08/09 00:44:54;;;;;;;6.40;3.20;;;;;;;16.40;91.99;99194.10;79526;1293;3011779;-65
2023/08/09 00:47:21;;;;;;;4.30;2.40;;;;;;;16.17;93.48;99173.30;78460;1298;3027408;-62
2023/08/09 00:49:48;;;;;;;4.00;2.30;;;;;;;15.89;94.62;99184.77;79517;1298;3013449;-63
2023/08/09 00:52:15;;;;;;;2.90;1.40;;;;;;;15.60;96.41;99178.96;79247;1293;3012894;-65
2023/08/09 00:54:46;;;;;;;2.80;1.20;;;;;;;15.83;95.76;99163.27;78110;1301;3049848;-63
2023/08/09 00:57:13;;;;;;;1.70;1.10;;;;;;;15.72;95.97;99158.14;79631;1293;3011692;-63
2023/08/09 00:59:42;;;;;;;2.40;1.10;;;;;;;15.65;97.07;99153.11;79030;1297;3012047;-63
2023/08/09 01:02:08;;;;;;;1.80;0.60;;;;;;;15.54;98.35;99148.39;79592;1298;3013547;-64
2023/08/09 01:04:35;;;;;;;3.80;0.90;;;;;;;15.75;96.96;99148.22;79469;1293;3011897;-63
2023/08/09 01:07:10;;;;;;;2.40;0.90;;;;;;;15.88;96.46;99139.50;78084;1293;3028531;-63
2023/08/09 01:09:54;;;;;;;1.00;0.80;;;;;;;15.73;96.41;99128.09;79090;1293;3011678;-63
2023/08/09 01:12:29;;;;;;;1.80;0.90;;;;;;;15.60;97.15;99131.66;78336;1298;3056593;-63
2023/08/09 01:14:59;;;;;;;5.00;1.10;;;;;;;15.82;94.61;99140.00;78465;1295;3048867;-62
2023/08/09 01:17:29;;;;;;;3.20;1.20;;;;;;;15.81;94.90;99132.48;79474;1299;3013385;-65
2023/08/09 01:19:58;;;;;;;1.90;1.00;;;;;;;15.68;95.41;99144.54;78214;1300;3053046;-62
2023/08/09 01:22:30;;;;;;;1.20;0.70;;;;;;;15.56;96.74;99146.30;79502;1300;3013724;-64
2023/08/09 01:25:02;;;;;;;6.60;1.00;;;;;;;15.87;95.38;99151.61;78134;1301;3050895;-65
2023/08/09 01:27:30;;;;;;;3.20;1.50;;;;;;;16.01;93.52;99151.77;79626;1293;3013331;-64
2023/08/09 01:29:58;;;;;;;2.20;1.50;;;;;;;15.81;93.63;99149.75;78297;1300;3049715;-65
2023/08/09 01:32:25;;;;;;;2.90;1.70;;;;;;;15.60;94.77;99158.09;79544;1298;3011666;-63
2023/08/09 01:34:52;;;;;;;5.60;2.10;;;;;;;15.55;96.07;99160.68;79550;1292;3013176;-63
2023/08/09 01:37:34;;;;;;;2.60;1.70;;;;;;;15.92;93.86;99167.34;78150;1302;3053766;-62
2023/08/09 01:40:08;;;;;;;;;;;;;;;15.86;92.88;99185.59;78502;1295;3069628;-64
2023/08/09 01:42:36;;;;;;;2.70;1.40;;;;;;;15.62;94.42;99200.48;79604;1293;3012801;-67
2023/08/09 01:45:05;;;;;;;2.10;0.90;;;;;;;15.57;94.77;99194.58;78466;1292;3056653;-63
2023/08/09 01:47:34;;;;;;;1.80;0.90;;;;;;;15.99;92.10;99205.30;79418;1293;3011748;-63
2023/08/09 01:50:05;;;;;;;1.10;0.70;;;;;;;16.11;91.35;99202.16;79187;1295;3013393;-65
2023/08/09 01:52:31;;;;;;;2.80;0.60;;;;;;;15.84;91.84;99218.41;79726;1293;3011564;-67
2023/08/09 01:54:58;;;;;;;0.30;0.30;;;;;;;15.65;92.62;99213.49;79721;1297;3011892;-64
2023/08/09 01:57:26;;;;;;;0.50;0.40;;;;;;;15.71;92.84;99221.11;78524;1293;3068741;-66
2023/08/09 01:59:52;;;;;;;0.90;0.60;;;;;;;15.97;91.03;99222.22;79701;1293;3013675;-64
2023/08/09 02:02:19;;;;;;;1.30;0.60;;;;;;;15.96;90.80;99219.82;79654;1292;3011691;-65
2023/08/09 02:04:47;;;;;;;6.20;0.80;;;;;;;15.78;91.38;99219.59;78465;1297;3027535;-65
2023/08/09 02:07:13;;;;;;;3.30;0.60;;;;;;;15.72;91.86;99222.81;79710;1298;3019596;-65
2023/08/09 02:09:40;;;;;;;2.00;0.50;;;;;;;16.02;90.09;99226.58;79583;1293;3011621;-65
2023/08/09 02:12:08;;;;;;;5.60;0.70;;;;;;;16.09;88.68;99228.64;78535;1295;3026436;-65
2023/08/09 02:14:34;;;;;;;1.50;0.60;;;;;;;15.93;89.16;99222.58;79662;1295;3013353;-66
2023/08/09 02:17:02;;;;;;;1.40;0.90;;;;;;;15.73;90.16;99229.75;79599;1293;3011470;-64
2023/08/09 02:19:32;;;;;;;2.70;0.40;;;;;;;15.61;91.75;99230.75;78377;1293;3053893;-68
2023/08/09 02:21:58;;;;;;;1.10;0.60;;;;;;;15.97;89.72;99224.92;79436;1298;3013052;-63
2023/08/09 02:24:25;;;;;;;1.20;0.80;;;;;;;16.09;88.77;99236.23;79565;1297;3011567;-67
2023/08/09 02:26:53;;;;;;;1.50;1.00;;;;;;;16.05;88.64;99237.45;78315;1293;3029180;-65
2023/08/09 02:29:20;;;;;;;1.00;0.60;;;;;;;15.81;89.31;99247.27;79549;1293;3013015;-67
2023/08/09 02:31:46;;;;;;;3.50;0.60;;;;;;;15.75;90.74;99244.02;79744;1298;3011747;-63
2023/08/09 02:34:14;;;;;;;2.30;1.00;;;;;;;16.01;88.77;99251.94;78315;1298;3052748;-66
2023/08/09 02:36:41;;;;;;;0.60;0.60;;;;;;;16.18;87.86;99249.17;79597;1298;3019745;-65
2023/08/09 02:39:08;;;;;;;1.80;0.70;;;;;;;16.09;87.25;99251.02;79847;1299;3013369;-65
2023/08/09 02:41:37;;;;;;;1.60;1.00;;;;;;;15.87;88.23;99254.50;78278;1299;3069728;-67
2023/08/09 02:44:05;;;;;;;2.70;0.90;;;;;;;15.73;89.60;99251.23;79745;1293;3013412;-65
2023/08/09 02:46:31;;;;;;;1.30;0.80;;;;;;;16.09;88.12;99257.94;79681;1293;3011638;-67
2023/08/09 02:48:59;;;;;;;1.50;0.70;;;;;;;16.33;86.52;99255.04;78329;1293;3053159;-65
2023/08/09 02:51:25;;;;;;;2.00;0.90;;;;;;;16.12;86.66;99248.83;79729;1298;3013417;-64
2023/08/09 02:54:03;;;;;;;1.20;0.90;;;;;;;15.93;87.24;99258.59;79327;1302;3013169;-67
2023/08/09 02:56:31;;;;;;;0.90;0.40;;;;;;;15.73;87.30;99258.01;78494;1298;3068984;-68
2023/08/09 02:58:58;;;;;;;1.00;0.60;;;;;;;15.96;86.21;99268.05;79698;1293;3013153;-69
2023/08/09 03:01:25;;;;;;;0.70;0.70;;;;;;;16.19;84.93;99265.92;79531;1293;3011497;-65
2023/08/09 03:03:54;;;;;;;0.80;0.60;;;;;;;16.19;85.29;99270.70;78457;1293;3053582;-67
2023/08/09 03:06:22;;;;;;;2.80;0.90;;;;;;;16.05;85.35;99281.91;79786;1298;3013184;-67
2023/08/09 03:08:49;;;;;;;1.10;0.70;;;;;;;16.02;86.24;99276.09;79675;1298;3011924;-68
2023/08/09 03:11:22;;;;;;;0.50;0.40;;;;;;;15.94;86.89;99279.55;78592;1298;3069114;-67
2023/08/09 03:13:49;;;;;;;;;;;;;;;16.32;85.41;99280.40;79762;1293;3011934;-64
2023/08/09 03:16:17;;;;;;;1.30;0.60;;;;;;;16.37;85.05;99283.63;78470;1298;3056952;-68
2023/08/09 03:18:44;;;;;;;1.10;0.60;;;;;;;16.36;84.19;99286.19;79649;1301;3018417;-65
2023/08/09 03:21:11;;;;;;;0.90;0.80;;;;;;;16.22;84.49;99287.90;79564;1293;3011486;-66
2023/08/09 03:23:38;;;;;;;1.80;0.60;;;;;;;16.12;84.82;99287.57;78395;1298;3026436;-67
2023/08/09 03:26:05;;;;;;;0.70;0.60;;;;;;;16.03;84.50;99284.44;79705;1293;3013486;-68
2023/08/09 03:28:33;;;;;;;1.20;0.50;;;;;;;16.40;83.71;99274.11;79770;1293;3011980;-66
2023/08/09 03:31:03;;;;;;;0.90;0.60;;;;;;;16.63;82.00;99272.52;78484;1298;3057078;-68
2023/08/09 03:33:33;;;;;;;0.90;0.70;;;;;;;16.45;82.82;99273.56;79783;1298;3011556;-63
2023/08/09 03:36:02;;;;;;;1.60;0.90;;;;;;;16.30;82.63;99268.28;78300;1293;3028777;-66
2023/08/09 03:38:28;;;;;;;0.90;0.80;;;;;;;16.19;83.33;99267.49;79722;1298;3014139;-66
2023/08/09 03:40:55;;;;;;;1.00;0.50;;;;;;;16.17;83.44;99274.95;79712;1298;3011856;-63
2023/08/09 03:43:24;;;;;;;1.00;0.70;;;;;;;16.50;82.68;99275.59;78355;1298;3069008;-64
2023/08/09 03:45:50;;;;;;;1.30;0.50;;;;;;;16.79;80.98;99266.49;79647;1296;3012815;-64
2023/08/09 03:48:18;;;;;;;3.00;0.50;;;;;;;16.74;80.31;99271.31;79653;1292;3014512;-67
2023/08/09 03:50:47;;;;;;;3.90;0.60;;;;;;;16.59;80.71;99271.29;78484;1298;3053664;-64
2023/08/09 03:53:14;;;;;;;2.40;0.50;;;;;;;16.45;81.46;99268.63;79440;1298;3013629;-65
2023/08/09 03:55:42;;;;;;;0.90;0.50;;;;;;;16.31;81.79;99277.01;79882;1298;3013518;-63
2023/08/09 03:58:09;;;;;;;1.10;0.30;;;;;;;16.19;83.39;99280.79;78327;1299;3069278;-66
2023/08/09 04:00:36;;;;;;;1.10;0.50;;;;;;;16.72;81.37;99280.70;79424;1297;3013269;-64
2023/08/09 04:03:03;;;;;;;0.70;0.60;;;;;;;17.15;79.19;99282.73;79398;1294;3011748;-63
2023/08/09 04:05:34;;;;;;;1.90;0.70;;;;;;;17.06;78.68;99283.19;78049;1296;3028708;-67
2023/08/09 04:08:02;;;;;;;0.80;0.80;;;;;;;16.88;79.46;99289.40;79654;1298;3013321;-66
2023/08/09 04:10:32;;;;;;;0.50;0.40;;;;;;;16.89;79.38;99280.64;78337;1298;3052545;-64
2023/08/09 04:12:59;;;;;;;0.50;0.40;;;;;;;16.72;79.35;99284.27;79428;1297;3013182;-66
2023/08/09 04:15:30;;;;;;;3.00;0.50;;;;;;;16.53;80.74;99288.91;78983;1294;3011940;-67
2023/08/09 04:17:57;;;;;;;0.70;0.40;;;;;;;16.42;81.52;99285.09;79831;1295;3021363;-74
2023/08/09 04:20:23;;;;;;;0.70;0.40;;;;;;;16.99;79.85;99283.64;79766;1293;3011607;-74
2023/08/09 04:22:51;;;;;;;2.50;0.40;;;;;;;17.47;77.57;99284.60;78371;1299;3027040;-73
2023/08/09 04:25:17;;;;;;;4.20;0.60;;;;;;;17.40;77.04;99288.61;79953;1298;3013609;-79
2023/08/09 04:27:44;;;;;;;2.00;0.50;;;;;;;17.36;77.19;99295.50;79829;1298;3011970;-76
2023/08/09 04:30:12;;;;;;;1.50;0.70;;;;;;;17.22;77.38;99292.17;78816;1295;3027795;-77
2023/08/09 04:32:39;;;;;;;0.60;0.60;;;;;;;17.03;78.23;99297.29;79900;1301;3013324;-74
2023/08/09 04:35:07;;;;;;;1.20;0.60;;;;;;;16.75;78.74;99302.22;79999;1293;3011665;-74
2023/08/09 04:37:35;;;;;;;2.00;0.60;;;;;;;16.61;79.82;99307.38;78770;1299;3054678;-75
2023/08/09 04:40:02;;;;;;;1.20;0.40;;;;;;;17.07;78.71;99308.23;80110;1295;3012906;-72
2023/08/09 04:42:28;;;;;;;0.70;0.50;;;;;;;17.57;76.76;99307.20;80070;1299;3011492;-73
2023/08/09 04:44:56;;;;;;;0.70;0.60;;;;;;;17.66;75.24;99308.48;78485;1293;3025100;-75
2023/08/09 04:47:23;;;;;;;0.90;0.50;;;;;;;17.54;75.79;99305.60;79752;1297;3012834;-72
2023/08/09 04:49:51;;;;;;;1.60;0.60;;;;;;;17.37;76.22;99305.14;79671;1297;3011777;-75
2023/08/09 04:52:19;;;;;;;1.00;0.70;;;;;;;17.13;76.45;99303.07;78477;1292;3054687;-73
2023/08/09 04:54:46;;;;;;;0.80;0.50;;;;;;;17.02;76.80;99304.27;79683;1295;3014618;-76
2023/08/09 04:57:12;;;;;;;0.70;0.40;;;;;;;16.97;77.74;99303.96;79559;1308;3011866;-74
2023/08/09 04:59:40;;;;;;;0.60;0.40;;;;;;;17.42;76.21;99308.20;78437;1293;3026666;-73
2023/08/09 05:02:06;;;;;;;0.30;0.30;;;;;;;17.77;74.46;99306.82;79770;1293;3013637;-74
2023/08/09 05:04:33;;;;;;;2.80;0.60;;;;;;;17.87;73.83;99308.53;79657;1299;3011650;-74
2023/08/09 05:07:02;;;;;;;1.30;0.60;;;;;;;17.75;73.98;99307.89;78468;1298;3026655;-75
2023/08/09 05:09:29;;;;;;;3.00;0.50;;;;;;;17.73;74.43;99305.42;79856;1298;3015523;-74
2023/08/09 05:11:56;;;;;;;0.90;0.50;;;;;;;17.59;74.95;99310.59;79623;1296;3011457;-74
2023/08/09 05:14:25;;;;;;;2.80;0.50;;;;;;;17.38;75.53;99314.95;78375;1308;3068794;-75
2023/08/09 05:16:53;;;;;;;1.00;0.50;;;;;;;17.23;75.59;99318.11;79733;1298;3013714;-77
2023/08/09 05:19:20;;;;;;;1.90;0.70;;;;;;;17.20;76.19;99322.61;79784;1299;3013037;-79
2023/08/09 05:21:48;;;;;;;0.70;0.50;;;;;;;17.72;74.88;99324.92;78500;1299;3054034;-78
2023/08/09 05:24:14;;;;;;;0.70;0.60;;;;;;;17.97;72.88;99326.55;79708;1297;3013519;-73
2023/08/09 05:26:41;;;;;;;0.80;0.70;;;;;;;17.94;73.07;99330.08;79766;1298;3011981;-72
2023/08/09 05:29:08;;;;;;;1.40;0.50;;;;;;;17.76;73.68;99329.89;78416;1296;3027291;-71
2023/08/09 05:31:35;;;;;;;0.60;0.50;;;;;;;17.71;73.96;99335.70;80270;1297;3014138;-72
2023/08/09 05:34:02;;;;;;;1.10;0.80;;;;;;;17.61;74.49;99329.33;79691;1298;3011567;-73
2023/08/09 05:36:30;;;;;;;4.40;0.60;;;;;;;17.50;74.81;99332.08;78733;1293;3028330;-73
2023/08/09 05:38:57;;;;;;;1.70;0.40;;;;;;;17.50;75.79;99327.86;79897;1295;3013214;-72
2023/08/09 05:41:24;;;;;;;2.20;0.70;;;;;;;18.06;74.27;99331.71;82182;1292;3011336;-70
2023/08/09 05:43:51;;;;;;;4.20;0.70;;;;;;;18.53;72.29;99334.42;79444;1292;3067200;-72
2023/08/09 05:46:19;;;;;;;0.90;0.60;;;;;;;18.71;71.91;99332.84;79671;1297;3013670;-73
2023/08/09 05:48:46;;;;;;;0.80;0.60;;;;;;;18.56;71.65;99339.45;80102;1292;3012906;-72
2023/08/09 05:51:13;;;;;;;0.90;0.70;;;;;;;18.50;71.96;99345.40;78540;1299;3054567;-70
2023/08/09 05:53:40;;;;;;;1.30;0.70;;;;;;;18.25;71.71;99350.52;79758;1296;3013519;-73
2023/08/09 05:56:06;;;;;;;2.80;0.60;;;;;;;18.19;72.28;99351.95;79768;1293;3011687;-72
2023/08/09 05:58:34;;;;;;;1.90;0.60;;;;;;;18.12;72.83;99354.27;78555;1305;3026466;-75
2023/08/09 06:01:01;;;;;;;1.40;0.70;;;;;;;18.14;72.56;99347.52;79773;1295;3012754;-75
2023/08/09 06:03:28;;;;;;;0.60;0.40;;;;;;;18.26;72.20;99357.55;79865;1295;3011649;-78
2023/08/09 06:05:57;;;;;;;1.60;0.70;;;;;;;18.23;72.04;99356.08;78743;1292;3027478;-73
2023/08/09 06:08:24;;;;;;;1.30;0.50;;;;;;;18.24;72.14;99358.95;79801;1293;3011616;-74
2023/08/09 06:10:50;;;;;;;1.10;0.50;;;;;;;18.59;71.07;99374.16;79800;1296;3011696;-75
2023/08/09 06:13:18;;;;;;;1.40;0.60;;;;;;;18.83;70.65;99377.02;78871;1296;3066935;-75
2023/08/09 06:15:45;;;;;;;1.00;0.70;;;;;;;18.72;70.44;99380.67;79970;1293;3013668;-72
2023/08/09 06:18:11;;;;;;;2.30;0.40;;;;;;;18.58;70.81;99381.14;79813;1298;3011881;-76
2023/08/09 06:20:39;;;;;;;0.50;0.50;;;;;;;18.38;71.25;99382.99;78403;1299;3028192;-72
2023/08/09 06:23:06;;;;;;;4.30;0.80;;;;;;;18.44;71.33;99384.05;79697;1299;3013239;-73
2023/08/09 06:25:32;;;;;;;1.20;0.70;;;;;;;18.40;71.40;99388.16;79738;1293;3011696;-70
2023/08/09 06:28:00;;;;;;;0.90;0.70;;;;;;;18.37;71.96;99380.27;78610;1294;3029878;-75
2023/08/09 06:30:27;;;;;;;1.30;0.60;;;;;;;18.43;71.92;99379.86;79872;1293;3013055;-76
2023/08/09 06:32:53;;;;;;;1.80;0.80;;;;;;;18.45;71.87;99390.32;79666;1301;3013218;-76
2023/08/09 06:35:21;;;;;;;2.40;0.70;;;;;;;18.66;72.19;99385.36;78470;1298;3027454;-73
2023/08/09 06:37:49;;;;;;;0.60;0.30;;;;;;;19.42;69.58;99398.58;79673;1298;3013039;-71
2023/08/09 06:40:16;;;;;;;0.70;0.50;;;;;;;19.57;67.92;99398.21;79896;1295;3011517;-82
2023/08/09 06:42:44;;;;;;;1.50;0.60;;;;;;;19.46;68.93;99390.09;78740;1293;3070651;-77
2023/08/09 06:45:11;;;;;;;1.10;0.80;;;;;;;19.52;69.47;99398.34;79894;1293;3012759;-75
2023/08/09 06:47:37;;;;;;;2.90;0.60;;;;;;;19.40;69.38;99405.71;79754;1296;3011658;-79
2023/08/09 06:50:05;;;;;;;3.40;0.60;;;;;;;19.25;69.98;99404.70;78772;1299;3053544;-68
2023/08/09 06:52:33;;;;;;;0.70;0.60;;;;;;;19.05;70.45;99404.88;79662;1298;3013355;-75
2023/08/09 06:55:00;;;;;;;0.80;0.60;;;;;;;18.92;71.12;99406.76;79602;1298;3011681;-72
2023/08/09 06:57:28;;;;;;;0.50;0.50;;;;;;;18.83;71.76;99405.16;78438;1298;3068226;-70
2023/08/09 06:59:55;;;;;;;1.10;0.60;;;;;;;18.90;71.53;99406.63;79753;1295;3013158;-76
2023/08/09 07:02:21;;;;;;;0.90;0.60;;;;;;;18.91;71.05;99414.73;79634;1295;3012962;-76
2023/08/09 07:04:52;;;;;;;4.00;0.80;;;;;;;18.89;70.78;99414.07;78455;1298;3053023;-69
2023/08/09 07:07:22;;;;;;;5.40;0.90;;;;;;;18.98;71.04;99409.80;79657;1299;3011566;-71
2023/08/09 07:09:52;;;;;;;0.70;0.60;;;;;;;19.11;70.55;99417.60;78432;1298;3052031;-70
2023/08/09 07:12:20;;;;;;;1.60;0.50;;;;;;;19.90;68.77;99416.02;79777;1297;3012720;-81
2023/08/09 07:14:49;;;;;;;0.60;0.40;;;;;;;20.46;66.67;99412.95;79437;1292;3013110;-81
2023/08/09 07:17:15;;;;;;;3.20;0.60;;;;;;;20.48;66.12;99418.77;80028;1296;3013000;-79
2023/08/09 07:19:42;;;;;;;1.50;0.70;;;;;;;20.44;65.70;99416.38;79762;1296;3011607;-77
2023/08/09 07:22:09;;;;;;;4.00;0.40;;;;;;;20.24;66.00;99427.74;78379;1294;3027385;-77
2023/08/09 07:24:36;;;;;;;1.40;0.70;;;;;;;20.09;66.27;99426.23;79628;1295;3013938;-78
2023/08/09 07:27:03;;;;;;;1.00;0.70;;;;;;;20.14;66.63;99429.69;79920;1296;3012269;-68
2023/08/09 07:29:31;;;;;;;1.10;0.50;;;;;;;20.05;66.16;99438.75;78735;1294;3028638;-74
2023/08/09 07:31:57;;;;;;;1.10;0.70;;;;;;;19.92;66.22;99434.52;79810;1295;3013096;-76
2023/08/09 07:34:24;;;;;;;1.60;0.60;;;;;;;19.76;66.85;99437.33;79579;1294;3011719;-76
2023/08/09 07:36:52;;;;;;;1.30;1.00;;;;;;;19.85;67.13;99436.98;78534;1292;3026655;-74
2023/08/09 07:39:18;;;;;;;2.80;1.00;;;;;;;19.88;67.91;99436.73;79883;1295;3020680;-73
2023/08/09 07:41:45;;;;;;;2.40;2.20;;;;;;;19.87;68.71;99442.58;79787;1296;3011493;-78
2023/08/09 07:44:12;;;;;;;2.00;0.90;;;;;;;19.83;68.48;99442.73;78530;1299;3026405;-68
2023/08/09 07:46:39;;;;;;;2.10;1.30;;;;;;;19.88;68.68;99443.85;79840;1293;3014021;-76
2023/08/09 07:49:06;;;;;;;4.10;1.30;;;;;;;19.76;68.64;99444.27;79716;1298;3013259;-73
2023/08/09 07:51:34;;;;;;;2.70;1.20;;;;;;;19.72;68.62;99435.66;78607;1293;3025979;-72
2023/08/09 07:54:00;;;;;;;4.00;1.10;;;;;;;19.67;68.22;99431.88;79657;1298;3019220;-70
2023/08/09 07:56:27;;;;;;;2.20;0.80;;;;;;;19.66;68.06;99434.95;79680;1298;3011643;-73
2023/08/09 07:58:55;;;;;;;2.50;0.90;;;;;;;19.67;67.93;99429.22;78343;1301;3028950;-73
2023/08/09 08:01:21;;;;;;;1.00;0.70;;;;;;;19.86;67.40;99425.77;79760;1296;3013691;-76
2023/08/09 08:03:48;;;;;;;1.40;0.60;;;;;;;19.98;66.96;99421.34;79722;1292;3011555;-73
2023/08/09 08:06:17;;;;;;;1.00;0.50;;;;;;;19.92;65.95;99426.39;78474;1298;3026277;-72
2023/08/09 08:08:47;;;;;;;0.80;0.60;;;;;;;19.70;66.65;99426.95;79694;1292;3011930;-71
2023/08/09 08:11:15;;;;;;;1.90;0.70;;;;;;;19.85;66.78;99422.13;78473;1298;3051507;-68
2023/08/09 08:13:41;;;;;;;2.40;0.80;;;;;;;20.03;65.72;99417.85;79744;1298;3018662;-70
2023/08/09 08:16:08;;;;;;;2.70;0.80;;;;;;;19.96;65.50;99435.79;79729;1292;3013675;-72
2023/08/09 08:18:36;;;;;;;1.40;0.70;;;;;;;20.13;65.53;99421.45;78475;1297;3028015;-72
2023/08/09 08:21:03;;;;;;;1.30;0.80;;;;;;;20.22;64.51;99414.67;79806;1292;3018421;-70
2023/08/09 08:23:32;;;;;;;1.50;0.70;;;;;;;20.30;64.97;99416.66;79700;1295;3011630;-73
2023/08/09 08:25:59;;;;;;;1.50;0.80;;;;;;;20.42;64.80;99416.20;78707;1298;3053076;-69
2023/08/09 08:28:26;;;;;;;1.00;0.60;;;;;;;20.46;64.63;99430.92;79742;1296;3012864;-71
2023/08/09 08:30:52;;;;;;;2.80;0.80;;;;;;;20.43;64.60;99433.70;79779;1295;3012865;-74
2023/08/09 08:33:21;;;;;;;5.40;0.80;;;;;;;20.47;64.36;99432.92;78447;1294;3026776;-73
2023/08/09 08:35:48;;;;;;;1.00;0.70;;;;;;;20.48;63.77;99430.67;80003;1295;3013874;-70
2023/08/09 08:38:15;;;;;;;2.60;0.60;;;;;;;20.49;63.20;99433.61;79757;1298;3011623;-71
2023/08/09 08:40:43;;;;;;;0.70;0.70;;;;;;;20.57;63.15;99432.30;78510;1298;3051398;-70
2023/08/09 08:43:10;;;;;;;1.00;0.60;;;;;;;20.91;62.69;99424.17;79746;1298;3013119;-72
2023/08/09 08:45:38;;;;;;;1.90;0.90;;;;;;;20.92;62.73;99432.05;79754;1292;3011590;-72
2023/08/09 08:48:10;;;;;;;2.20;0.90;;;;;;;21.01;62.36;99428.08;78513;1294;3058040;-71
2023/08/09 08:50:38;;;;;;;4.00;0.60;;;;;;;20.99;62.05;99431.33;79935;1293;3011752;-71
2023/08/09 08:53:06;;;;;;;0.80;0.50;;;;;;;21.06;61.83;99434.11;78456;1296;3052996;-72
2023/08/09 08:55:33;;;;;;;1.40;0.80;;;;;;;21.19;61.56;99432.23;79868;1298;3013135;-70
2023/08/09 08:58:00;;;;;;;1.30;0.70;;;;;;;21.38;62.06;99434.13;79587;1293;3011745;-72
2023/08/09 09:00:28;;;;;;;0.90;0.70;;;;;;;21.36;62.23;99432.91;78489;1292;3026237;-73
2023/08/09 09:02:55;;;;;;;2.00;0.60;;;;;;;21.41;62.20;99434.35;79698;1293;3011398;-73
2023/08/09 09:05:22;;;;;;;1.00;0.60;;;;;;;21.42;60.70;99438.14;79765;1292;3011901;-73
2023/08/09 09:07:50;;;;;;;1.20;0.50;;;;;;;21.43;60.72;99443.99;78670;1293;3053087;-73
2023/08/09 09:10:20;;;;;;;1.10;0.70;;;;;;;21.48;59.61;99438.27;79867;1298;3012946;-73
2023/08/09 09:12:53;;;;;;;3.20;0.50;;;;;;;21.52;59.83;99437.51;78477;1297;3052313;-69
2023/08/09 09:15:20;;;;;;;1.00;0.60;;;;;;;21.51;59.66;99436.00;79760;1296;3011563;-72
2023/08/09 09:17:48;;;;;;;0.70;0.50;;;;;;;21.32;59.38;99455.05;78519;1298;3052537;-71
2023/08/09 09:20:29;;;;;;;1.00;0.50;;;;;;;21.44;58.49;99447.22;79841;1293;3018412;-71
2023/08/09 09:22:57;;;;;;;2.20;0.50;;;;;;;21.61;58.82;99440.63;78501;1297;3052881;-75
2023/08/09 09:25:23;;;;;;;2.40;0.60;;;;;;;22.01;58.48;99444.49;79672;1295;3018452;-72
2023/08/09 09:27:55;;;;;;;1.70;0.60;;;;;;;22.28;57.85;99442.84;79700;1296;3012772;-73
2023/08/09 09:30:29;;;;;;;4.00;0.60;;;;;;;22.57;57.19;99442.57;78459;1296;3068338;-73
2023/08/09 09:33:05;;;;;;;2.00;0.80;;;;;;;22.54;57.61;99448.98;79150;1293;3013200;-74
2023/08/09 09:35:34;;;;;;;5.00;0.70;;;;;;;22.28;58.02;99452.84;79136;1292;3011954;-75
2023/08/09 09:38:02;;;;;;;0.70;0.50;;;;;;;22.27;57.26;99447.92;79679;1296;3011960;-73
2023/08/09 09:40:30;;;;;;;1.20;0.70;;;;;;;22.11;57.74;99449.17;79874;1298;3011926;-73
2023/08/09 09:42:59;;;;;;;3.70;0.80;;;;;;;22.12;57.74;99448.74;78423;1298;3053571;-72
2023/08/09 09:45:29;;;;;;;0.60;0.50;;;;;;;22.11;58.65;99446.11;79787;1295;3013069;-72
2023/08/09 09:47:58;;;;;;;1.30;0.70;;;;;;;22.34;58.42;99446.89;78476;1298;3053123;-75
2023/08/09 09:50:27;;;;;;;0.90;0.60;;;;;;;22.54;57.87;99450.88;79824;1298;3013352;-74
2023/08/09 09:52:56;;;;;;;1.80;0.70;;;;;;;22.67;57.57;99450.67;79157;1293;3013374;-71
2023/08/09 09:55:28;;;;;;;0.60;0.50;;;;;;;22.94;57.01;99449.29;79739;1292;3013481;-76
2023/08/09 09:57:57;;;;;;;0.80;0.70;;;;;;;23.00;56.96;99450.45;78467;1293;3053775;-73
2023/08/09 10:00:25;;;;;;;2.40;0.60;;;;;;;22.89;57.18;99454.39;79730;1295;3013720;-73
2023/08/09 10:02:55;;;;;;;2.30;0.70;;;;;;;23.11;56.64;99445.80;79250;1294;3011921;-71
2023/08/09 10:05:26;;;;;;;0.50;0.50;;;;;;;23.02;55.52;99454.31;79694;1292;3012696;-72
2023/08/09 10:07:54;;;;;;;1.40;0.60;;;;;;;22.75;56.01;99458.76;78487;1293;3051195;-73
2023/08/09 10:10:21;;;;;;;0.60;0.40;;;;;;;22.52;56.94;99457.34;79684;1293;3013265;-72
2023/08/09 10:12:51;;;;;;;0.60;0.60;;;;;;;22.52;57.23;99457.14;79601;1292;3011608;-73
2023/08/09 10:15:21;;;;;;;1.60;0.70;;;;;;;22.66;56.63;99456.23;78518;1297;3050075;-74
2023/08/09 10:17:49;;;;;;;0.70;0.50;;;;;;;22.58;56.83;99456.52;79801;1297;3013229;-72
2023/08/09 10:20:17;;;;;;;1.60;0.50;;;;;;;22.60;55.47;99463.64;78491;1297;3029034;-73
2023/08/09 10:22:46;;;;;;;0.80;0.60;;;;;;;22.74;55.87;99453.38;79423;1300;3013258;-71
2023/08/09 10:25:12;;;;;;;0.70;0.40;;;;;;;22.99;55.36;99453.08;79657;1293;3011905;-74
2023/08/09 10:27:49;;;;;;;0.50;0.50;;;;;;;23.06;55.09;99455.27;78462;1292;3048218;-74
2023/08/09 10:30:25;;;;;;;1.10;0.80;;;;;;;22.74;55.86;99458.29;78837;1290;3052932;-71
2023/08/09 10:32:57;;;;;;;1.70;0.60;;;;;;;22.58;56.75;99461.88;78824;1292;3051455;-74
2023/08/09 10:35:43;;;;;;;1.30;0.90;;;;;;;22.40;57.75;99468.16;79928;1298;3013343;-72
2023/08/09 10:38:14;;;;;;;1.40;0.80;;;;;;;22.50;57.25;99463.13;78719;1295;3054515;-73
2023/08/09 10:40:42;;;;;;;1.00;0.70;;;;;;;22.96;56.60;99459.55;79862;1295;3011796;-74
2023/08/09 10:43:17;;;;;;;0.80;0.60;;;;;;;23.42;56.05;99458.05;78810;1290;3025824;-73
2023/08/09 10:45:46;;;;;;;1.90;0.70;;;;;;;23.11;56.73;99448.10;78711;1289;3056639;-73
2023/08/09 10:48:16;;;;;;;3.30;0.80;;;;;;;22.61;58.30;99449.09;80010;1289;3018455;-72
2023/08/09 10:50:44;;;;;;;0.90;0.70;;;;;;;22.73;57.68;99442.69;78559;1294;3049701;-68
2023/08/09 10:53:10;;;;;;;3.00;0.70;;;;;;;23.02;55.83;99439.46;79863;1295;3012892;-71
2023/08/09 10:55:37;;;;;;;1.80;0.70;;;;;;;23.14;55.24;99447.94;79890;1292;3011605;-69
2023/08/09 10:58:05;;;;;;;0.90;0.60;;;;;;;22.88;55.20;99451.08;78632;1294;3026588;-69
2023/08/09 11:00:38;;;;;;;3.50;0.80;;;;;;;22.73;54.88;99443.46;79858;1290;3013743;-69
2023/08/09 11:03:06;;;;;;;3.70;0.60;;;;;;;22.95;54.04;99446.16;78643;1289;3053127;-67
2023/08/09 11:05:33;;;;;;;2.10;0.60;;;;;;;23.42;53.70;99446.01;79903;1289;3013087;-69
2023/08/09 11:08:00;;;;;;;1.00;0.70;;;;;;;23.58;53.83;99451.67;79923;1294;3012035;-69
2023/08/09 11:10:29;;;;;;;4.80;0.80;;;;;;;23.26;54.76;99454.15;78646;1293;3069865;-67
2023/08/09 11:12:56;;;;;;;1.40;0.80;;;;;;;23.49;54.81;99452.83;79916;1292;3013627;-71
2023/08/09 11:15:22;;;;;;;1.90;0.90;;;;;;;23.65;54.43;99453.29;79832;1295;3011824;-67
2023/08/09 11:17:50;;;;;;;2.10;0.80;;;;;;;23.66;54.22;99450.05;78753;1289;3052078;-66
2023/08/09 11:20:17;;;;;;;1.40;0.80;;;;;;;23.53;52.79;99446.23;79914;1292;3012896;-70